Time,TemperatureF,DewpointF,PressureIn,WindDirection,WindDirectionDegrees,WindSpeedMPH,WindSpeedGustMPH,Humidity,HourlyPrecipIn,Conditions,Clouds,dailyrainin,SoftwareType,DateUTC
2013-05-23 00:08:00,64.9,64.3,29.75,ENE,67,0.0,-999.0,98,-99.99,,,0.02,Acu-Link.com,2013-05-23 04:08:00,
2013-05-23 00:24:00,64.9,64.3,29.75,ENE,67,0.0,-999.0,98,-99.99,,,0.10,Acu-Link.com,2013-05-23 04:24:00,
2013-05-23 00:39:00,65.1,64.5,29.76,ENE,67,0.0,-999.0,98,-99.99,,,0.10,Acu-Link.com,2013-05-23 04:39:00,
2013-05-23 00:54:00,65.1,64.5,29.76,ENE,67,0.0,-999.0,98,-99.99,,,0.10,Acu-Link.com,2013-05-23 04:54:00,
2013-05-23 01:09:00,64.9,64.3,29.76,ENE,67,0.0,-999.0,98,-99.99,,,0.10,Acu-Link.com,2013-05-23 05:09:00,
2013-05-23 01:25:00,64.9,64.3,29.75,ENE,67,0.0,-999.0,98,-99.99,,,0.10,Acu-Link.com,2013-05-23 05:25:00,
2013-05-23 01:40:00,64.8,64.2,29.76,ENE,67,0.0,-999.0,98,-99.99,,,0.10,Acu-Link.com,2013-05-23 05:40:00,
2013-05-23 01:55:00,64.8,64.2,29.75,ENE,67,0.0,-999.0,98,-99.99,,,0.11,Acu-Link.com,2013-05-23 05:55:00,
2013-05-23 02:11:00,64.8,64.2,29.74,ENE,67,0.0,-999.0,98,-99.99,,,0.14,Acu-Link.com,2013-05-23 06:11:00,
2013-05-23 02:26:00,64.8,64.2,29.75,ENE,67,0.0,-999.0,98,-99.99,,,0.14,Acu-Link.com,2013-05-23 06:26:00,
2013-05-23 02:41:00,64.8,64.2,29.76,ENE,67,0.0,-999.0,98,-99.99,,,0.22,Acu-Link.com,2013-05-23 06:41:00,
2013-05-23 02:56:00,64.8,64.2,29.76,South,180,0.0,-999.0,98,-99.99,,,0.36,Acu-Link.com,2013-05-23 06:56:00,
2013-05-23 03:11:00,64.6,64.0,29.76,SSE,157,0.0,-999.0,98,-99.99,,,0.57,Acu-Link.com,2013-05-23 07:11:00,
2013-05-23 03:27:00,64.6,64.0,29.75,SSE,157,0.0,-999.0,98,-99.99,,,0.57,Acu-Link.com,2013-05-23 07:27:00,
2013-05-23 03:42:00,64.0,63.4,29.75,SSE,157,0.0,-999.0,98,-99.99,,,0.57,Acu-Link.com,2013-05-23 07:42:00,
2013-05-23 03:57:00,63.7,63.1,29.76,SSE,157,0.0,-999.0,98,-99.99,,,0.57,Acu-Link.com,2013-05-23 07:57:00,
2013-05-23 04:14:00,63.5,62.9,29.76,SSE,157,0.0,-999.0,98,-99.99,,,0.57,Acu-Link.com,2013-05-23 08:14:00,
2013-05-23 04:29:00,63.3,62.7,29.76,SSE,157,0.0,-999.0,98,-99.99,,,0.57,Acu-Link.com,2013-05-23 08:29:00,
2013-05-23 04:44:00,63.1,62.5,29.76,SSE,157,0.0,-999.0,98,-99.99,,,0.57,Acu-Link.com,2013-05-23 08:44:00,
2013-05-23 04:59:00,63.1,62.5,29.77,SSE,157,0.0,-999.0,98,-99.99,,,0.57,Acu-Link.com,2013-05-23 08:59:00,
2013-05-23 05:14:00,63.3,62.7,29.77,SSE,157,0.0,-999.0,98,-99.99,,,0.57,Acu-Link.com,2013-05-23 09:14:00,
2013-05-23 05:29:00,63.5,62.9,29.77,SSE,157,0.0,-999.0,98,-99.99,,,0.57,Acu-Link.com,2013-05-23 09:29:00,
2013-05-23 05:44:00,63.7,63.1,29.76,SSE,157,0.0,-999.0,98,-99.99,,,0.57,Acu-Link.com,2013-05-23 09:44:00,
2013-05-23 06:00:00,63.7,63.1,29.76,SSE,157,0.0,-999.0,98,-99.99,,,0.65,Acu-Link.com,2013-05-23 10:00:00,
2013-05-23 06:15:00,63.5,62.9,29.77,SSE,157,0.0,-999.0,98,-99.99,,,0.65,Acu-Link.com,2013-05-23 10:15:00,
2013-05-23 06:30:00,63.5,62.9,29.77,SSE,157,0.0,-999.0,98,-99.99,,,0.65,Acu-Link.com,2013-05-23 10:30:00,
2013-05-23 06:45:00,63.1,62.5,29.78,SSE,157,0.0,-999.0,98,-99.99,,,0.65,Acu-Link.com,2013-05-23 10:45:00,
2013-05-23 07:01:00,63.1,62.5,29.77,SSE,157,0.0,-999.0,98,-99.99,,,0.65,Acu-Link.com,2013-05-23 11:01:00,
2013-05-23 07:16:00,63.1,62.5,29.78,SSE,157,0.0,-999.0,98,-99.99,,,0.65,Acu-Link.com,2013-05-23 11:16:00,
2013-05-23 07:31:00,63.1,62.5,29.78,SSE,157,0.0,-999.0,98,-99.99,,,0.65,Acu-Link.com,2013-05-23 11:31:00,
2013-05-23 07:46:00,63.1,62.5,29.77,SSE,157,0.0,-999.0,98,-99.99,,,0.65,Acu-Link.com,2013-05-23 11:46:00,
2013-05-23 08:01:00,63.5,62.9,29.78,SSE,157,0.0,-999.0,98,-99.99,,,0.65,Acu-Link.com,2013-05-23 12:01:00,
2013-05-23 08:17:00,63.9,63.3,29.78,SSE,157,0.0,-999.0,98,-99.99,,,0.65,Acu-Link.com,2013-05-23 12:17:00,
2013-05-23 08:32:00,64.2,63.6,29.78,SSE,157,0.0,-999.0,98,-99.99,,,0.65,Acu-Link.com,2013-05-23 12:32:00,
2013-05-23 08:47:00,64.6,64.0,29.78,SSE,157,0.0,-999.0,98,-99.99,,,0.65,Acu-Link.com,2013-05-23 12:47:00,
2013-05-23 09:02:00,64.9,64.3,29.78,SSE,157,0.0,-999.0,98,-99.99,,,0.65,Acu-Link.com,2013-05-23 13:02:00,
2013-05-23 09:17:00,65.3,64.7,29.79,SSE,157,0.0,-999.0,98,-99.99,,,0.65,Acu-Link.com,2013-05-23 13:17:00,
2013-05-23 09:33:00,65.3,64.7,29.78,SSE,157,0.0,-999.0,98,-99.99,,,0.65,Acu-Link.com,2013-05-23 13:33:00,
2013-05-23 09:48:00,64.9,64.3,29.79,SSE,157,0.0,-999.0,98,-99.99,,,0.65,Acu-Link.com,2013-05-23 13:48:00,
2013-05-23 10:03:00,64.8,64.2,29.78,WNW,292,0.0,-999.0,98,-99.99,,,0.65,Acu-Link.com,2013-05-23 14:03:00,
2013-05-23 10:18:00,65.1,64.5,29.79,NNW,337,1.7,-999.0,98,-99.99,,,0.65,Acu-Link.com,2013-05-23 14:18:00,
2013-05-23 10:33:00,65.3,64.7,29.79,SSE,157,0.0,-999.0,98,-99.99,,,0.65,Acu-Link.com,2013-05-23 14:33:00,
2013-05-23 10:49:00,65.5,64.9,29.78,SSE,157,0.0,-999.0,98,-99.99,,,0.65,Acu-Link.com,2013-05-23 14:49:00,
2013-05-23 11:04:00,66.0,65.4,29.78,South,180,1.1,-999.0,98,-99.99,,,0.65,Acu-Link.com,2013-05-23 15:04:00,
2013-05-23 11:20:00,65.3,64.1,29.78,SE,135,1.1,-999.0,96,-99.99,,,0.65,Acu-Link.com,2013-05-23 15:20:00,
2013-05-23 11:35:00,66.9,64.5,29.79,South,180,1.1,-999.0,92,-99.99,,,0.65,Acu-Link.com,2013-05-23 15:35:00,
2013-05-23 11:50:00,68.5,63.8,29.78,SSW,202,2.2,-999.0,85,-99.99,,,0.65,Acu-Link.com,2013-05-23 15:50:00,
2013-05-23 12:05:00,68.4,63.4,29.79,SW,225,1.7,-999.0,84,-99.99,,,0.65,Acu-Link.com,2013-05-23 16:05:00,
2013-05-23 12:20:00,68.7,65.6,29.79,South,180,1.7,-999.0,90,-99.99,,,0.65,Acu-Link.com,2013-05-23 16:20:00,
2013-05-23 12:36:00,69.4,68.2,29.78,SSW,202,0.0,-999.0,96,-99.99,,,0.65,Acu-Link.com,2013-05-23 16:36:00,
2013-05-23 12:51:00,69.4,66.0,29.77,South,180,1.1,-999.0,89,-99.99,,,0.65,Acu-Link.com,2013-05-23 16:51:00,
2013-05-23 13:06:00,68.5,64.8,29.77,ESE,112,1.7,-999.0,88,-99.99,,,0.65,Acu-Link.com,2013-05-23 17:06:00,
2013-05-23 13:21:00,71.1,66.4,29.76,SSE,157,2.2,-999.0,85,-99.99,,,0.65,Acu-Link.com,2013-05-23 17:21:00,
2013-05-23 13:37:00,70.9,64.1,29.76,SSW,202,1.1,-999.0,79,-99.99,,,0.65,Acu-Link.com,2013-05-23 17:37:00,
2013-05-23 13:52:00,74.3,66.6,29.76,South,180,1.7,-999.0,77,-99.99,,,0.65,Acu-Link.com,2013-05-23 17:52:00,
2013-05-23 14:07:00,75.6,66.3,29.75,SSW,202,2.2,-999.0,73,-99.99,,,0.65,Acu-Link.com,2013-05-23 18:07:00,
2013-05-23 14:22:00,77.4,63.8,29.75,SSW,202,1.7,-999.0,63,-99.99,,,0.65,Acu-Link.com,2013-05-23 18:22:00,
2013-05-23 14:37:00,79.7,63.1,29.75,SSW,202,1.1,-999.0,57,-99.99,,,0.65,Acu-Link.com,2013-05-23 18:37:00,
2013-05-23 14:53:00,82.9,63.4,29.74,SSW,202,1.7,-999.0,52,-99.99,,,0.65,Acu-Link.com,2013-05-23 18:53:00,
2013-05-23 15:08:00,82.6,65.3,29.74,ESE,112,0.0,-999.0,56,-99.99,,,0.65,Acu-Link.com,2013-05-23 19:08:00,
2013-05-23 15:23:00,82.8,65.0,29.74,WSW,247,0.0,-999.0,55,-99.99,,,0.65,Acu-Link.com,2013-05-23 19:23:00,
2013-05-23 15:38:00,81.5,65.3,29.73,South,180,1.1,-999.0,58,-99.99,,,0.65,Acu-Link.com,2013-05-23 19:38:00,
2013-05-23 15:53:00,78.1,63.5,29.73,SSE,157,1.1,-999.0,61,-99.99,,,0.65,Acu-Link.com,2013-05-23 19:53:00,
2013-05-23 16:09:00,78.8,62.8,29.73,South,180,1.1,-999.0,58,-99.99,,,0.65,Acu-Link.com,2013-05-23 20:09:00,
2013-05-23 16:24:00,80.6,63.9,29.72,SE,135,0.0,-999.0,57,-99.99,,,0.65,Acu-Link.com,2013-05-23 20:24:00,
2013-05-23 16:39:00,82.0,63.2,29.72,SSW,202,2.2,-999.0,53,-99.99,,,0.65,Acu-Link.com,2013-05-23 20:39:00,
2013-05-23 16:54:00,79.7,63.6,29.71,SSE,157,0.0,-999.0,58,-99.99,,,0.65,Acu-Link.com,2013-05-23 20:54:00,
2013-05-23 17:09:00,78.4,65.2,29.71,SSE,157,1.7,-999.0,64,-99.99,,,0.65,Acu-Link.com,2013-05-23 21:09:00,
2013-05-23 17:25:00,78.4,61.4,29.72,SSW,202,0.0,-999.0,56,-99.99,,,0.65,Acu-Link.com,2013-05-23 21:25:00,
2013-05-23 17:40:00,78.6,60.0,29.72,SW,225,1.7,-999.0,53,-99.99,,,0.65,Acu-Link.com,2013-05-23 21:40:00,
2013-05-23 17:55:00,79.3,60.7,29.71,SW,225,3.2,-999.0,53,-99.99,,,0.65,Acu-Link.com,2013-05-23 21:55:00,
2013-05-23 18:10:00,79.0,60.4,29.71,South,180,1.7,-999.0,53,-99.99,,,0.65,Acu-Link.com,2013-05-23 22:10:00,
2013-05-23 18:26:00,78.1,59.6,29.71,South,180,1.1,-999.0,53,-99.99,,,0.65,Acu-Link.com,2013-05-23 22:26:00,
2013-05-23 18:41:00,77.7,60.2,29.72,SSW,202,1.1,-999.0,55,-99.99,,,0.65,Acu-Link.com,2013-05-23 22:41:00,
2013-05-23 18:56:00,77.2,60.3,29.71,SW,225,1.7,-999.0,56,-99.99,,,0.65,Acu-Link.com,2013-05-23 22:56:00,
2013-05-23 19:11:00,76.1,60.7,29.71,SE,135,1.7,-999.0,59,-99.99,,,0.65,Acu-Link.com,2013-05-23 23:11:00,
2013-05-23 19:26:00,76.1,61.2,29.71,SSW,202,2.2,-999.0,60,-99.99,,,0.65,Acu-Link.com,2013-05-23 23:26:00,
2013-05-23 19:42:00,75.0,59.7,29.72,ESE,112,2.2,-999.0,59,-99.99,,,0.65,Acu-Link.com,2013-05-23 23:42:00,
2013-05-23 19:57:00,74.5,59.2,29.72,South,180,1.1,-999.0,59,-99.99,,,0.65,Acu-Link.com,2013-05-23 23:57:00,
2013-05-23 20:12:00,73.4,59.1,29.73,SE,135,1.7,-999.0,61,-99.99,,,0.65,Acu-Link.com,2013-05-24 00:12:00,
2013-05-23 20:27:00,72.9,59.1,29.73,SSW,202,2.2,-999.0,62,-99.99,,,0.65,Acu-Link.com,2013-05-24 00:27:00,
2013-05-23 20:43:00,72.1,59.2,29.74,South,180,1.1,-999.0,64,-99.99,,,0.65,Acu-Link.com,2013-05-24 00:43:00,
2013-05-23 20:58:00,71.4,59.0,29.75,ESE,112,1.7,-999.0,65,-99.99,,,0.65,Acu-Link.com,2013-05-24 00:58:00,
2013-05-23 21:13:00,70.5,58.6,29.76,SE,135,1.1,-999.0,66,-99.99,,,0.65,Acu-Link.com,2013-05-24 01:13:00,
2013-05-23 21:28:00,70.2,58.3,29.76,SE,135,1.7,-999.0,66,-99.99,,,0.65,Acu-Link.com,2013-05-24 01:28:00,
2013-05-23 21:44:00,69.6,58.6,29.77,ESE,112,2.2,-999.0,68,-99.99,,,0.65,Acu-Link.com,2013-05-24 01:44:00,
2013-05-23 21:59:00,69.3,57.9,29.77,South,180,1.7,-999.0,67,-99.99,,,0.65,Acu-Link.com,2013-05-24 01:59:00,
2013-05-23 22:14:00,68.7,57.7,29.77,South,180,0.0,-999.0,68,-99.99,,,0.65,Acu-Link.com,2013-05-24 02:14:00,
2013-05-23 22:29:00,68.2,58.0,29.78,South,180,0.0,-999.0,70,-99.99,,,0.65,Acu-Link.com,2013-05-24 02:29:00,
2013-05-23 22:44:00,68.0,57.8,29.78,South,180,1.7,-999.0,70,-99.99,,,0.65,Acu-Link.com,2013-05-24 02:44:00,
2013-05-23 23:00:00,67.5,57.4,29.77,SSE,157,0.0,-999.0,70,-99.99,,,0.65,Acu-Link.com,2013-05-24 03:00:00,
2013-05-23 23:15:00,66.9,60.2,29.78,South,180,0.0,-999.0,79,-99.99,,,0.65,Acu-Link.com,2013-05-24 03:15:00,
2013-05-23 23:30:00,64.8,59.2,29.78,East,90,1.7,-999.0,82,-99.99,,,0.65,Acu-Link.com,2013-05-24 03:30:00,
2013-05-23 23:46:00,63.5,58.6,29.78,East,90,1.7,-999.0,84,-99.99,,,0.65,Acu-Link.com,2013-05-24 03:46:00,